This is the latest recevied weather packets stored in our database for station/object AD4CG. If no packets are shown the sender has not sent any weather packets the latest 10 day(s).
| Time | Temp. | Humidity | Pressure | Rain* | Wind** | Luminosity | Snow |
|---|---|---|---|---|---|---|---|
| 1778137108 | 18.89° C | 100% | 1011.9 hPa | 0 mm | - | - | - |
| 1778132060 | 19.44° C | 100% | 1012.9 hPa | 0.76 mm | - | - | - |
| 1778131756 | 19.44° C | 100% | 1012.9 hPa | 0.76 mm | - | - | - |
| 1778131109 | 19.44° C | 100% | 1013.5 hPa | 1.02 mm | - | - | - |
| 1778130476 | 19.44° C | 100% | 1013.5 hPa | 0.76 mm | - | - | - |
| 1778129843 | 19.44° C | 100% | 1013.9 hPa | 0.76 mm | - | - | - |
| 1778129526 | 19.44° C | 100% | 1013.5 hPa | 0.76 mm | - | - | - |
| 1778126354 | 20.56° C | 100% | 1013.2 hPa | 0.25 mm | - | - | - |
| 1778124779 | 22.22° C | 90% | 1012.9 hPa | 0 mm | - | - | - |
| 1778123205 | 22.22° C | 80% | 1012.9 hPa | 0 mm | - | - | - |
| 1778122577 | 22.22° C | 81% | 1012.9 hPa | 0 mm | - | - | - |
| 1778118801 | 22.22° C | 78% | 1012.5 hPa | 0 mm | - | - | - |
| 1778118166 | 22.78° C | 77% | 1012.5 hPa | 0 mm | - | - | - |
| 1778117853 | 22.78° C | 76% | 1012.5 hPa | 0 mm | - | - | - |
| 1778117538 | 22.78° C | 76% | 1012.9 hPa | 0 mm | - | - | - |
| 1778115965 | 23.33° C | 73% | 1012.5 hPa | 0 mm | - | - | - |
| 1778113107 | 23.89° C | 67% | 1012.5 hPa | 0 mm | - | - | - |
| 1778112156 | 24.44° C | 63% | 1012.2 hPa | 0 mm | - | - | - |
| 1778110267 | 25.56° C | 56% | 1012.2 hPa | 0 mm | - | - | - |
| 1778109321 | 25.56° C | 54% | 1012.2 hPa | 0 mm | - | - | - |
| 1778104256 | 26.67° C | 50% | 1011.9 hPa | 0 mm | - | - | - |
| 1778103943 | 26.67° C | 50% | 1011.9 hPa | 0 mm | - | - | - |
| 1778102688 | 26.11° C | 52% | 1012.2 hPa | 0 mm | - | - | - |
| 1778101114 | 25.56° C | 60% | 1012.2 hPa | 0 mm | - | - | - |
| 1778096696 | 25.56° C | 52% | 1013.9 hPa | 0 mm | - | - | - |
* Rain latest hour (hover to see other rain measurements)
** Current wind speed in m/s (hover to see current wind gust speed)